createdAt,value
2019-02-07T04:16:33.606Z,25.40
2019-02-07T04:19:27.522Z,26.43
2019-02-07T04:22:13.963Z,26.63
2019-02-07T04:25:05.288Z,22.87
2019-02-07T04:27:52.523Z,25.30
2019-02-07T04:30:49.851Z,25.70
2019-02-07T04:33:36.738Z,26.60
2019-02-07T04:36:20.522Z,25.57
2019-02-07T04:38:58.473Z,26.57
2019-02-07T04:41:55.455Z,23.57
2019-02-07T04:44:49.651Z,25.07
2019-02-07T04:47:36.734Z,22.77
2019-02-07T04:50:31.232Z,23.97
2019-02-07T04:53:25.163Z,21.10
2019-02-07T04:56:11.788Z,21.23
2019-02-07T04:58:59.943Z,22.33
2019-02-07T05:01:46.641Z,20.00
2019-02-07T05:04:30.448Z,22.73
2019-02-07T05:07:24.742Z,21.40
2019-02-07T05:10:21.683Z,21.93
2019-02-07T05:13:06.987Z,20.90
2019-02-07T05:15:53.939Z,20.30
2019-02-07T05:18:40.741Z,19.37
2019-02-07T05:21:27.234Z,20.13
2019-02-07T05:24:12.454Z,22.53
2019-02-07T05:27:01.575Z,21.67
2019-02-07T05:29:46.669Z,23.50
2019-02-07T05:32:26.915Z,22.33
2019-02-07T05:35:18.108Z,22.97
2019-02-07T05:38:19.573Z,22.52
2019-02-07T05:41:16.835Z,21.70
2019-02-07T05:44:05.234Z,19.33
2019-02-07T05:46:56.193Z,21.70
2019-02-07T05:49:44.647Z,19.37
2019-02-07T05:52:33.562Z,19.93
2019-02-07T05:55:20.226Z,19.33
2019-02-07T05:58:08.429Z,21.43
2019-02-07T06:00:56.730Z,20.83
2019-02-07T06:03:36.955Z,21.00
2019-02-07T06:06:36.956Z,20.80
2019-02-07T06:09:13.954Z,20.80
2019-02-07T06:12:05.048Z,19.93
2019-02-07T06:14:59.148Z,21.20
2019-02-07T06:17:52.018Z,21.67
2019-02-07T06:20:40.177Z,21.17
2019-02-07T06:23:31.896Z,21.90
2019-02-07T06:26:14.321Z,22.27
2019-02-07T06:29:04.219Z,20.27
2019-02-07T06:31:52.369Z,21.90
2019-02-07T06:34:39.349Z,23.17
2019-02-07T06:37:17.588Z,21.90
2019-02-07T06:39:56.072Z,20.00
2019-02-07T06:42:33.470Z,20.10
2019-02-07T06:45:29.409Z,18.33
2019-02-07T06:48:20.734Z,22.40
2019-02-07T06:51:08.721Z,19.90
2019-02-07T06:53:56.749Z,20.73
2019-02-07T06:57:00.035Z,21.27
2019-02-07T06:59:39.169Z,20.83
2019-02-07T07:02:45.290Z,22.60
2019-02-07T07:05:27.974Z,22.50
2019-02-07T07:08:19.306Z,22.10
2019-02-07T07:11:22.961Z,21.57
2019-02-07T07:14:00.966Z,19.20
2019-02-07T07:16:53.723Z,19.73
2019-02-07T07:19:41.527Z,21.83
2019-02-07T07:22:22.283Z,20.70
2019-02-07T07:25:09.058Z,22.93
2019-02-07T07:27:57.863Z,19.23
2019-02-07T07:30:44.422Z,20.60
2019-02-07T07:33:22.894Z,20.63
2019-02-07T07:36:18.230Z,20.50
2019-02-07T07:39:21.664Z,21.10
2019-02-07T07:42:13.003Z,20.20
2019-02-07T07:44:54.475Z,20.83
2019-02-07T07:47:48.722Z,19.60
2019-02-07T07:50:35.610Z,20.70
2019-02-07T07:53:39.063Z,19.43
2019-02-07T07:56:39.321Z,20.07
2019-02-07T07:59:42.163Z,21.33
2019-02-07T08:02:28.882Z,19.27
2019-02-07T08:05:03.813Z,18.90
2019-02-07T08:07:50.513Z,19.93
2019-02-07T08:10:50.691Z,17.77
2019-02-07T08:13:45.375Z,19.07
2019-02-07T08:16:42.631Z,17.63
2019-02-07T08:19:33.839Z,17.90
2019-02-07T08:22:11.451Z,18.10
2019-02-07T08:25:18.015Z,18.07
2019-02-07T08:28:07.820Z,16.53
2019-02-07T08:30:52.044Z,17.43
2019-02-07T08:33:40.274Z,16.80
2019-02-07T08:36:22.239Z,16.00
2019-02-07T08:39:07.299Z,16.57
2019-02-07T08:42:11.748Z,15.30
2019-02-07T08:45:01.687Z,16.47
2019-02-07T08:47:43.537Z,18.03
2019-02-07T08:50:47.391Z,15.50
2019-02-07T08:53:39.179Z,15.53
2019-02-07T08:56:20.682Z,14.63
2019-02-07T08:59:11.878Z,15.60
2019-02-07T09:02:08.867Z,15.83
2019-02-07T09:04:57.026Z,15.17
2019-02-07T09:07:50.004Z,13.70
2019-02-07T09:10:30.401Z,16.50
2019-02-07T09:13:21.405Z,16.93
2019-02-07T09:16:12.944Z,16.70
2019-02-07T09:18:55.066Z,15.13
2019-02-07T09:21:40.036Z,15.83
2019-02-07T09:24:27.052Z,16.50
2019-02-07T09:27:13.943Z,16.37
2019-02-07T09:30:00.843Z,16.03
2019-02-07T09:32:49.632Z,15.37
2019-02-07T09:35:33.789Z,15.33
2019-02-07T09:38:20.686Z,15.30
2019-02-07T09:41:01.103Z,14.60
2019-02-07T09:43:47.741Z,14.40
2019-02-07T09:46:40.657Z,16.00
2019-02-07T09:49:32.383Z,13.63
2019-02-07T09:52:29.656Z,16.80
2019-02-07T09:55:14.366Z,14.47
2019-02-07T09:58:02.610Z,16.40
2019-02-07T10:00:39.847Z,15.60
2019-02-07T10:03:26.494Z,15.40
2019-02-07T10:06:10.869Z,14.93
2019-02-07T10:08:51.373Z,15.37
2019-02-07T10:11:38.078Z,15.67
2019-02-07T10:14:15.185Z,15.40
2019-02-07T10:17:02.261Z,15.30
2019-02-07T10:19:53.308Z,15.97
2019-02-07T10:22:40.003Z,18.70
2019-02-07T10:25:26.826Z,16.83
2019-02-07T10:48:43.946Z,14.70
2019-02-07T10:51:21.746Z,14.30
2019-02-07T10:54:15.369Z,16.47
2019-02-07T10:57:09.692Z,16.10
2019-02-07T11:00:10.175Z,13.90
2019-02-07T11:03:13.503Z,14.20
2019-02-07T11:05:55.691Z,15.70
2019-02-07T11:08:43.812Z,16.13
2019-02-07T11:11:30.698Z,14.90
2019-02-07T11:14:25.087Z,15.63
2019-02-07T11:17:07.853Z,15.20
2019-02-07T11:20:02.056Z,16.20
2019-02-07T11:23:00.859Z,13.33
2019-02-07T11:25:58.514Z,14.43
2019-02-07T11:28:59.086Z,14.50
2019-02-07T11:31:45.469Z,14.30
2019-02-07T11:34:25.474Z,14.87
2019-02-07T11:37:32.022Z,14.60
2019-02-07T11:40:19.162Z,16.00
2019-02-07T11:43:05.799Z,14.00
2019-02-07T11:46:05.806Z,16.87
2019-02-07T11:48:52.422Z,15.67
2019-02-07T11:51:47.439Z,15.43
2019-02-07T11:54:41.759Z,15.87
2019-02-07T11:57:40.398Z,15.80
2019-02-07T12:00:31.330Z,13.73
2019-02-07T12:03:17.958Z,14.53
2019-02-07T12:06:04.531Z,15.57
2019-02-07T12:09:01.878Z,15.50
2019-02-07T12:11:48.867Z,13.90
2019-02-07T12:14:37.286Z,14.67
2019-02-07T12:17:24.176Z,14.60
2019-02-07T12:20:24.392Z,16.27
2019-02-07T12:23:15.571Z,15.30
2019-02-07T12:25:52.430Z,16.77
2019-02-07T12:28:47.454Z,14.10
2019-02-07T12:31:41.827Z,15.33
2019-02-07T12:34:37.490Z,15.27
2019-02-07T12:37:24.457Z,16.00
2019-02-07T12:40:11.432Z,14.23
2019-02-07T12:43:06.531Z,16.00
2019-02-07T12:45:52.920Z,14.18
2019-02-07T12:48:44.065Z,14.30
2019-02-07T12:51:40.502Z,14.87
2019-02-07T12:54:37.918Z,16.23
2019-02-07T12:57:35.019Z,16.13
2019-02-07T13:00:15.717Z,16.50
2019-02-07T13:03:16.146Z,15.77
2019-02-07T13:06:03.145Z,15.87
2019-02-07T13:08:48.156Z,16.10
2019-02-07T13:11:28.663Z,16.20
2019-02-07T13:14:19.818Z,16.10
2019-02-07T13:17:11.969Z,16.30
2019-02-07T13:19:59.289Z,17.70
2019-02-07T13:22:44.186Z,18.00
2019-02-07T13:25:41.602Z,18.13
2019-02-07T13:28:45.177Z,16.60
2019-02-07T13:31:23.442Z,18.50
2019-02-07T13:34:05.919Z,17.43
2019-02-07T13:37:03.138Z,18.27
2019-02-07T13:39:51.324Z,17.27
2019-02-07T13:42:34.689Z,18.90
2019-02-07T13:45:23.169Z,18.47
2019-02-07T13:48:14.234Z,17.03
2019-02-07T13:51:12.208Z,17.60
2019-02-07T13:53:48.516Z,19.43
2019-02-07T13:56:36.683Z,19.93
2019-02-07T13:59:23.566Z,19.30
2019-02-07T14:02:27.037Z,19.30
2019-02-07T14:05:27.598Z,17.40
2019-02-07T14:08:15.743Z,19.80
2019-02-07T14:11:05.094Z,19.40
2019-02-07T14:13:58.728Z,19.63
2019-02-07T14:16:40.058Z,19.80
2019-02-07T14:19:40.333Z,20.33
2019-02-07T14:22:22.637Z,20.10
2019-02-07T14:25:09.357Z,20.40
2019-02-07T14:27:48.571Z,22.20
2019-02-07T14:30:36.800Z,20.93
2019-02-07T14:33:17.301Z,21.07
2019-02-07T14:36:02.038Z,20.00
2019-02-07T14:38:56.015Z,22.10
2019-02-07T14:41:47.371Z,21.23
2019-02-07T14:44:27.355Z,19.90
2019-02-07T14:46:56.301Z,20.67
2019-02-07T14:49:25.725Z,20.03
2019-02-07T14:51:55.184Z,19.27
2019-02-07T14:54:24.392Z,22.20
2019-02-07T14:56:53.709Z,21.80
2019-02-07T14:59:22.859Z,21.03
2019-02-07T15:01:52.052Z,19.60
2019-02-07T15:04:21.042Z,20.10
2019-02-07T15:06:50.192Z,21.07
2019-02-07T15:09:20.655Z,21.27
2019-02-07T15:11:49.733Z,21.60
2019-02-07T15:14:18.825Z,20.23
2019-02-07T15:16:48.118Z,22.17
2019-02-07T15:19:17.174Z,21.77
2019-02-07T15:21:46.342Z,19.90
2019-02-07T15:24:15.503Z,22.00
2019-02-07T15:26:44.570Z,24.00
2019-02-07T15:29:16.007Z,24.33
2019-02-07T15:31:44.847Z,24.47
2019-02-07T15:34:15.285Z,25.40
2019-02-07T15:36:46.578Z,23.50
2019-02-07T15:39:16.762Z,22.67
2019-02-07T15:41:46.052Z,23.73
2019-02-07T15:44:15.234Z,23.27
2019-02-07T15:46:44.503Z,24.77
2019-02-07T15:49:13.667Z,24.20
2019-02-07T15:51:42.950Z,25.77
2019-02-07T15:54:12.090Z,24.13
2019-02-07T15:56:41.238Z,22.43
2019-02-07T15:59:35.488Z,20.33
2019-02-07T16:02:30.207Z,18.60
2019-02-07T16:04:59.734Z,17.13
2019-02-07T16:07:28.891Z,14.30
2019-02-07T16:09:58.014Z,13.77
2019-02-07T16:12:27.383Z,10.63
2019-02-07T16:14:56.760Z,8.53
2019-02-07T16:17:25.949Z,7.70
2019-02-07T16:19:55.304Z,7.03
2019-02-07T16:22:24.967Z,6.67
2019-02-07T16:24:54.113Z,6.10
2019-02-07T16:27:23.704Z,5.10
2019-02-07T16:29:52.922Z,4.23
2019-02-07T16:32:22.196Z,4.33
2019-02-07T16:34:51.224Z,4.40
2019-02-07T16:37:20.410Z,3.70
2019-02-07T16:39:49.647Z,4.17
2019-02-07T16:42:19.024Z,4.00
2019-02-07T16:44:48.718Z,4.00
2019-02-07T16:47:17.871Z,3.70
2019-02-07T16:49:47.099Z,3.17
2019-02-07T16:52:16.105Z,3.17
2019-02-07T16:54:45.222Z,4.60
2019-02-07T16:57:14.716Z,3.40
2019-02-07T16:59:43.800Z,3.37
2019-02-07T17:02:12.954Z,3.20
2019-02-07T17:04:41.981Z,3.20
2019-02-07T17:07:11.259Z,3.50
2019-02-07T17:09:41.869Z,2.80
2019-02-07T17:12:11.346Z,3.03
2019-02-07T17:14:40.405Z,3.27
2019-02-07T17:17:09.395Z,3.40
2019-02-07T17:19:38.559Z,2.50
2019-02-07T17:22:07.845Z,2.67
2019-02-07T17:24:36.915Z,2.30
2019-02-07T17:27:09.411Z,2.43
2019-02-07T17:29:38.382Z,2.70
2019-02-07T17:32:07.630Z,2.50
2019-02-07T17:34:36.724Z,2.57
2019-02-07T17:37:05.803Z,2.10
2019-02-07T17:39:34.979Z,2.27
2019-02-07T17:42:04.458Z,1.80
2019-02-07T17:44:33.684Z,1.53
2019-02-07T17:47:02.871Z,1.83
2019-02-07T17:49:32.173Z,1.70
2019-02-07T17:52:01.278Z,2.10
2019-02-07T17:54:30.263Z,2.57
2019-02-07T17:56:59.567Z,1.83
2019-02-07T17:59:28.694Z,1.50
2019-02-07T18:01:57.808Z,1.47
2019-02-07T18:04:27.431Z,1.80
2019-02-07T18:06:56.625Z,1.27
2019-02-07T18:09:25.957Z,1.67
2019-02-07T18:11:55.398Z,1.60
2019-02-07T18:14:24.710Z,1.77
2019-02-07T18:16:53.711Z,1.67
2019-02-07T18:19:22.871Z,1.50
2019-02-07T18:21:51.880Z,1.70
2019-02-07T18:24:21.007Z,1.67
2019-02-07T18:26:50.072Z,1.60
2019-02-07T18:29:19.243Z,1.73
2019-02-07T18:31:48.230Z,1.80
2019-02-07T18:34:17.406Z,3.47
2019-02-07T18:36:46.453Z,1.73
2019-02-07T18:39:15.549Z,1.97
2019-02-07T18:41:44.766Z,1.80
2019-02-07T18:44:14.196Z,1.83
2019-02-07T18:46:43.459Z,2.07
2019-02-07T18:49:12.682Z,2.13
2019-02-07T18:51:45.751Z,1.70
2019-02-07T18:54:12.915Z,1.87
2019-02-07T18:56:41.925Z,2.80
2019-02-07T18:59:11.302Z,2.43
2019-02-07T19:01:40.418Z,2.13
2019-02-07T19:04:09.566Z,2.03
2019-02-07T19:06:38.675Z,2.40
2019-02-07T19:09:09.351Z,2.10
2019-02-07T19:11:38.452Z,2.20
2019-02-07T19:14:09.438Z,2.00
2019-02-07T19:16:38.640Z,1.90
2019-02-07T19:19:08.079Z,2.50
2019-02-07T19:21:37.088Z,2.37
2019-02-07T19:24:06.352Z,2.37
2019-02-07T19:26:35.580Z,2.10
2019-02-07T19:29:05.705Z,2.53
2019-02-07T19:31:34.963Z,3.10
2019-02-07T19:34:04.242Z,2.50
2019-02-07T19:36:33.366Z,2.40
2019-02-07T19:39:02.663Z,2.73
2019-02-07T19:41:31.736Z,4.97
2019-02-07T19:44:00.879Z,3.73
2019-02-07T19:46:30.023Z,3.73
2019-02-07T19:48:59.133Z,4.30
2019-02-07T19:51:28.114Z,3.43
2019-02-07T19:53:57.190Z,4.03
2019-02-07T19:56:26.255Z,3.00
2019-02-07T19:58:55.330Z,3.30
2019-02-07T20:01:24.676Z,3.50
2019-02-07T20:03:53.670Z,3.63
2019-02-07T20:06:22.734Z,4.23
2019-02-07T20:08:51.979Z,3.70
2019-02-07T20:11:21.096Z,3.50
2019-02-07T20:13:50.153Z,3.60
2019-02-07T20:16:19.612Z,3.80
2019-02-07T20:18:48.727Z,3.17
2019-02-07T20:21:17.814Z,3.20
2019-02-07T20:23:46.936Z,3.67
2019-02-07T20:26:16.079Z,3.90
2019-02-07T20:28:45.281Z,3.33
2019-02-07T20:31:14.310Z,3.53
2019-02-07T20:33:43.347Z,4.30
2019-02-07T20:36:12.479Z,3.73
2019-02-07T20:38:41.558Z,3.80
2019-02-07T20:41:10.659Z,3.90
2019-02-07T20:43:39.765Z,4.00
2019-02-07T20:46:08.911Z,3.70
2019-02-07T20:48:37.940Z,3.80
2019-02-07T20:51:07.300Z,4.23
2019-02-07T20:53:36.447Z,3.73
2019-02-07T20:56:06.161Z,4.53
2019-02-07T20:58:35.388Z,4.03
2019-02-07T21:01:04.639Z,4.63
2019-02-07T21:03:33.841Z,4.20
2019-02-07T21:06:02.971Z,4.40
2019-02-07T21:08:32.407Z,4.40
2019-02-07T21:11:01.565Z,4.23
2019-02-07T21:13:30.662Z,5.30
2019-02-07T21:15:59.663Z,4.60
2019-02-07T21:18:28.826Z,3.67
2019-02-07T21:20:57.889Z,4.77
2019-02-07T21:23:27.132Z,4.80
2019-02-07T21:25:56.264Z,5.00
2019-02-07T21:28:25.399Z,5.00
2019-02-07T21:30:54.509Z,4.63
2019-02-07T21:33:23.588Z,5.07
2019-02-07T21:35:52.578Z,5.27
2019-02-07T21:38:21.648Z,5.07
2019-02-07T21:40:51.114Z,5.50
2019-02-07T21:43:20.109Z,5.53
2019-02-07T21:45:49.289Z,5.40
2019-02-07T21:48:18.422Z,4.83
2019-02-07T21:50:47.682Z,6.00
2019-02-07T21:53:16.912Z,5.07
2019-02-07T21:55:46.127Z,6.47
2019-02-07T21:58:15.777Z,5.90
2019-02-07T22:00:45.743Z,5.80
2019-02-07T22:03:15.923Z,5.70
2019-02-07T22:05:45.052Z,6.00
2019-02-07T22:08:14.214Z,7.73
2019-02-07T22:10:43.381Z,5.97
2019-02-07T22:13:12.937Z,6.27
2019-02-07T22:15:41.930Z,6.37
2019-02-07T22:18:11.106Z,6.10
2019-02-07T22:20:40.198Z,6.47
2019-02-07T22:23:09.278Z,6.73
2019-02-07T22:25:38.402Z,7.47
2019-02-07T22:28:08.457Z,7.43
2019-02-07T22:30:38.249Z,8.30
2019-02-07T22:33:07.993Z,6.80
2019-02-07T22:35:37.125Z,6.70
2019-02-07T22:38:07.662Z,10.10
2019-02-07T22:40:36.842Z,23.30
2019-02-07T22:43:06.357Z,11.63
2019-02-07T22:45:35.449Z,12.40
2019-02-07T22:48:04.818Z,9.00
2019-02-07T22:50:33.798Z,14.07
2019-02-07T22:53:02.982Z,14.00
2019-02-07T22:55:32.171Z,9.97
2019-02-07T22:58:01.547Z,7.73
2019-02-07T23:01:27.985Z,6.83
2019-02-07T23:03:59.382Z,6.40
2019-02-07T23:06:28.547Z,6.93
2019-02-07T23:08:57.803Z,5.33
2019-02-07T23:11:27.259Z,5.20
2019-02-07T23:13:56.397Z,4.37
2019-02-07T23:16:25.650Z,4.90
2019-02-07T23:18:55.027Z,4.17
2019-02-07T23:21:24.155Z,4.33
2019-02-07T23:23:53.304Z,4.17
2019-02-07T23:26:22.430Z,3.90
2019-02-07T23:28:51.509Z,4.30
